createdAt,value
2017-12-15T00:02:08.636Z,3.97
2017-12-15T00:04:36.920Z,2.60
2017-12-15T00:07:04.467Z,5.03
2017-12-15T00:09:31.968Z,3.40
2017-12-15T00:11:59.487Z,4.03
2017-12-15T00:14:27.805Z,3.53
2017-12-15T00:16:58.260Z,4.32
2017-12-15T00:19:25.765Z,4.53
2017-12-15T00:21:53.274Z,3.47
2017-12-15T00:24:20.778Z,3.00
2017-12-15T00:26:48.273Z,4.30
2017-12-15T00:29:15.785Z,4.07
2017-12-15T00:31:44.200Z,3.40
2017-12-15T00:34:11.703Z,3.50
2017-12-15T00:36:40.028Z,6.20
2017-12-15T00:39:07.562Z,5.03
2017-12-15T00:41:35.880Z,6.43
2017-12-15T00:44:03.406Z,5.40
2017-12-15T00:46:30.936Z,5.55
2017-12-15T00:48:58.454Z,4.93
2017-12-15T00:51:25.950Z,4.50
2017-12-15T00:53:53.502Z,6.43
2017-12-15T00:56:21.039Z,4.22
2017-12-15T00:58:48.555Z,5.60
2017-12-15T01:01:16.888Z,7.80
2017-12-15T01:03:44.390Z,7.18
2017-12-15T01:06:11.906Z,8.05
2017-12-15T01:08:39.409Z,7.82
2017-12-15T01:11:07.723Z,6.93
2017-12-15T01:13:35.231Z,6.70
2017-12-15T01:16:02.734Z,6.35
2017-12-15T01:18:30.259Z,6.62
2017-12-15T01:20:58.535Z,5.22
2017-12-15T01:23:26.816Z,6.10
2017-12-15T01:25:55.109Z,6.70
2017-12-15T01:28:22.623Z,6.85
2017-12-15T01:30:50.139Z,6.87
2017-12-15T01:33:17.667Z,6.35
2017-12-15T01:35:45.975Z,6.82
2017-12-15T01:38:13.479Z,8.00
2017-12-15T01:40:40.985Z,8.30
2017-12-15T01:43:08.483Z,11.25
2017-12-15T01:45:35.980Z,9.25
2017-12-15T01:48:04.452Z,11.68
2017-12-15T01:50:32.013Z,10.45
2017-12-15T01:52:59.544Z,9.27
2017-12-15T01:55:27.054Z,9.00
2017-12-15T01:57:55.330Z,8.25
2017-12-15T02:00:23.611Z,9.23
2017-12-15T02:02:51.114Z,8.43
2017-12-15T02:05:18.903Z,10.63
2017-12-15T02:07:46.442Z,7.60
2017-12-15T02:10:13.951Z,9.70
2017-12-15T02:12:41.477Z,9.95
2017-12-15T02:15:12.490Z,8.70
2017-12-15T02:17:40.019Z,10.40
2017-12-15T02:20:07.574Z,9.93
2017-12-15T02:22:35.078Z,9.07
2017-12-15T02:25:02.580Z,12.07
2017-12-15T02:27:30.088Z,13.57
2017-12-15T02:29:57.597Z,10.63
2017-12-15T02:32:25.898Z,10.35
2017-12-15T02:34:53.397Z,9.45
2017-12-15T02:37:20.900Z,11.02
2017-12-15T02:39:48.427Z,7.30
2017-12-15T02:42:16.045Z,9.32
2017-12-15T02:44:43.720Z,10.77
2017-12-15T02:47:11.227Z,12.02
2017-12-15T02:49:38.743Z,12.93
2017-12-15T02:52:06.254Z,12.95
2017-12-15T02:54:33.846Z,11.73
2017-12-15T02:57:01.380Z,15.43
2017-12-15T02:59:28.902Z,15.50
2017-12-15T03:01:56.408Z,20.17
2017-12-15T03:04:23.939Z,10.43
2017-12-15T03:06:51.731Z,20.20
2017-12-15T03:09:21.068Z,10.93
2017-12-15T03:11:48.795Z,14.48
2017-12-15T03:14:16.410Z,16.42
2017-12-15T03:16:44.398Z,16.40
2017-12-15T03:19:12.686Z,15.25
2017-12-15T03:21:41.546Z,9.77
2017-12-15T03:24:09.088Z,7.65
2017-12-15T03:26:36.593Z,7.53
2017-12-15T03:29:04.886Z,11.90
2017-12-15T03:31:32.379Z,7.70
2017-12-15T03:33:59.913Z,6.37
2017-12-15T03:36:27.416Z,7.10
2017-12-15T03:38:54.930Z,9.00
2017-12-15T03:41:22.426Z,8.48
2017-12-15T03:43:50.717Z,8.32
2017-12-15T03:46:18.212Z,6.97
2017-12-15T03:48:46.471Z,8.10
2017-12-15T03:51:14.266Z,7.62
2017-12-15T03:53:41.796Z,7.00
2017-12-15T03:56:10.059Z,8.63
2017-12-15T03:58:37.580Z,9.13
2017-12-15T04:01:05.133Z,7.07
2017-12-15T04:03:32.813Z,8.13
2017-12-15T04:06:00.340Z,7.55
2017-12-15T04:08:27.842Z,8.90
2017-12-15T04:10:55.404Z,8.00
2017-12-15T04:13:22.936Z,8.13
2017-12-15T04:15:50.475Z,8.90
2017-12-15T04:18:18.011Z,7.45
2017-12-15T04:20:45.669Z,6.20
2017-12-15T04:23:13.233Z,10.30
2017-12-15T04:25:40.818Z,12.32
2017-12-15T04:28:08.330Z,9.82
2017-12-15T04:30:35.983Z,7.78
2017-12-15T04:33:03.490Z,6.50
2017-12-15T04:35:31.774Z,7.30
2017-12-15T04:37:59.455Z,7.40
2017-12-15T04:40:26.971Z,7.07
2017-12-15T04:42:54.490Z,8.55
2017-12-15T04:45:21.994Z,8.00
2017-12-15T04:47:49.511Z,10.75
2017-12-15T04:50:17.003Z,7.57
2017-12-15T04:52:44.528Z,8.13
2017-12-15T04:55:12.069Z,8.90
2017-12-15T04:57:39.598Z,9.07
2017-12-15T05:00:07.864Z,6.80
2017-12-15T05:02:35.376Z,7.32
2017-12-15T05:05:02.884Z,9.07
2017-12-15T05:07:30.384Z,7.53
2017-12-15T05:09:57.875Z,7.68
2017-12-15T05:12:25.383Z,8.60
2017-12-15T05:14:52.905Z,10.52
2017-12-15T05:17:20.440Z,9.13
2017-12-15T05:19:47.938Z,7.90
2017-12-15T05:22:16.227Z,7.37
2017-12-15T05:24:44.500Z,7.93
2017-12-15T05:27:12.775Z,11.00
2017-12-15T05:29:41.062Z,7.22
2017-12-15T05:32:09.410Z,7.80
2017-12-15T05:34:36.920Z,8.70
2017-12-15T05:37:04.431Z,6.60
2017-12-15T05:39:32.692Z,7.90
2017-12-15T05:42:00.205Z,8.02
2017-12-15T05:44:27.722Z,7.68
2017-12-15T05:46:55.250Z,6.50
2017-12-15T05:49:22.772Z,8.73
2017-12-15T05:51:51.054Z,6.75
2017-12-15T05:54:19.311Z,7.05
2017-12-15T05:56:47.607Z,7.80
2017-12-15T05:59:15.879Z,8.60
2017-12-15T06:01:44.194Z,8.23
2017-12-15T06:04:11.740Z,6.80
2017-12-15T06:06:39.252Z,7.82
2017-12-15T06:09:06.914Z,7.40
2017-12-15T06:11:34.442Z,8.48
2017-12-15T06:14:01.948Z,7.55
2017-12-15T06:16:29.470Z,8.40
2017-12-15T06:18:57.011Z,9.57
2017-12-15T06:21:24.536Z,10.73
2017-12-15T06:23:52.224Z,8.07
2017-12-15T06:26:19.730Z,7.45
2017-12-15T06:28:47.255Z,9.57
2017-12-15T06:31:14.772Z,8.83
2017-12-15T06:33:42.316Z,10.80
2017-12-15T06:36:09.833Z,7.20
2017-12-15T06:38:37.367Z,13.00
2017-12-15T06:41:04.886Z,14.00
2017-12-15T06:43:32.411Z,12.43
2017-12-15T06:45:59.964Z,13.70
2017-12-15T06:48:27.490Z,12.30
2017-12-15T06:50:55.780Z,20.85
2017-12-15T06:53:23.305Z,16.80
2017-12-15T06:55:50.817Z,11.35
2017-12-15T06:58:18.342Z,10.75
2017-12-15T07:00:46.620Z,17.25
2017-12-15T07:03:14.906Z,14.02
2017-12-15T07:05:43.177Z,19.55
2017-12-15T07:08:11.453Z,19.10
2017-12-15T07:10:39.719Z,13.00
2017-12-15T07:13:07.994Z,12.50
2017-12-15T07:15:36.294Z,13.47
2017-12-15T07:18:03.857Z,10.68
2017-12-15T07:20:31.411Z,10.27
2017-12-15T07:22:59.774Z,14.82
2017-12-15T07:25:27.308Z,9.82
2017-12-15T07:27:54.840Z,12.93
2017-12-15T07:30:22.339Z,10.48
2017-12-15T07:32:49.859Z,13.38
2017-12-15T07:35:17.880Z,14.52
2017-12-15T07:37:46.468Z,18.45
2017-12-15T07:40:14.755Z,15.35
2017-12-15T07:42:43.055Z,15.05
2017-12-15T07:45:10.553Z,15.18
2017-12-15T07:47:38.085Z,11.82
2017-12-15T07:50:05.596Z,14.38
2017-12-15T07:52:33.132Z,12.77
2017-12-15T07:55:00.655Z,12.37
2017-12-15T07:57:28.233Z,14.73
2017-12-15T07:59:55.764Z,11.32
2017-12-15T08:02:23.266Z,11.63
2017-12-15T08:04:50.788Z,13.27
2017-12-15T08:07:18.275Z,11.73
2017-12-15T08:09:45.788Z,12.30
2017-12-15T08:12:16.308Z,10.40
2017-12-15T08:14:43.842Z,12.75
2017-12-15T08:17:11.352Z,15.60
2017-12-15T08:19:38.871Z,11.12
2017-12-15T08:22:06.371Z,11.45
2017-12-15T08:24:33.875Z,12.18
2017-12-15T08:27:01.389Z,13.30
2017-12-15T08:29:28.912Z,12.60
2017-12-15T08:31:56.427Z,11.02
2017-12-15T08:34:23.958Z,12.07
2017-12-15T08:36:51.473Z,25.37
2017-12-15T08:39:19.004Z,11.15
2017-12-15T08:41:46.524Z,13.00
2017-12-15T08:44:14.991Z,12.65
2017-12-15T08:46:42.521Z,13.45
2017-12-15T08:49:10.052Z,18.90
2017-12-15T08:51:37.555Z,14.02
2017-12-15T08:54:05.059Z,10.90
2017-12-15T08:56:32.640Z,23.38
2017-12-15T08:59:00.154Z,13.75
2017-12-15T09:01:28.440Z,15.93
2017-12-15T09:04:03.106Z,18.23
2017-12-15T09:06:30.634Z,15.10
2017-12-15T09:08:58.137Z,17.02
2017-12-15T09:11:25.667Z,14.20
2017-12-15T09:13:53.240Z,14.70
2017-12-15T09:16:20.797Z,17.70
2017-12-15T09:18:48.383Z,19.45
2017-12-15T09:21:15.997Z,18.08
2017-12-15T09:23:43.504Z,19.10
2017-12-15T09:26:11.060Z,15.40
2017-12-15T09:28:38.582Z,17.67
2017-12-15T09:31:06.152Z,16.58
2017-12-15T09:33:33.881Z,14.98
2017-12-15T09:36:01.428Z,19.33
2017-12-15T09:38:28.944Z,14.77
2017-12-15T09:40:56.485Z,14.10
2017-12-15T09:43:24.003Z,12.00
2017-12-15T09:45:51.550Z,12.23
2017-12-15T09:48:19.121Z,12.40
2017-12-15T09:50:46.594Z,11.65
2017-12-15T09:53:14.895Z,11.60
2017-12-15T09:55:42.404Z,9.90
2017-12-15T09:58:09.915Z,11.93
2017-12-15T10:00:37.406Z,13.60
2017-12-15T10:03:04.939Z,11.30
2017-12-15T10:05:32.475Z,11.48
2017-12-15T10:08:00.032Z,9.73
2017-12-15T10:10:28.308Z,8.40
2017-12-15T10:12:56.600Z,8.70
2017-12-15T10:15:24.109Z,11.40
2017-12-15T10:17:51.663Z,8.25
2017-12-15T10:20:19.933Z,10.50
2017-12-15T10:22:47.450Z,9.10
2017-12-15T10:25:15.707Z,10.13
2017-12-15T10:27:44.297Z,10.25
2017-12-15T10:30:11.788Z,12.82
2017-12-15T10:32:39.448Z,10.88
2017-12-15T10:35:06.976Z,12.77
2017-12-15T10:37:34.514Z,12.27
2017-12-15T10:40:02.040Z,8.95
2017-12-15T10:42:29.568Z,11.68
2017-12-15T10:44:57.973Z,12.20
2017-12-15T10:47:25.502Z,12.23
2017-12-15T10:49:53.810Z,11.30
2017-12-15T10:52:21.575Z,11.02
2017-12-15T10:54:49.111Z,10.85
2017-12-15T10:57:17.391Z,10.38
2017-12-15T10:59:45.670Z,10.87
2017-12-15T11:02:13.183Z,16.75
2017-12-15T11:04:40.719Z,12.65
2017-12-15T11:07:08.269Z,12.05
2017-12-15T11:09:35.789Z,11.82
2017-12-15T11:12:04.081Z,13.93
2017-12-15T11:14:31.598Z,16.02
2017-12-15T11:16:59.208Z,16.10
2017-12-15T11:19:26.786Z,17.83
2017-12-15T11:21:54.375Z,13.93
2017-12-15T11:24:21.898Z,14.40
2017-12-15T11:26:49.454Z,13.32
2017-12-15T11:29:17.011Z,13.93
2017-12-15T11:31:44.526Z,15.80
2017-12-15T11:34:12.064Z,13.07
2017-12-15T11:36:39.574Z,14.05
2017-12-15T11:39:07.839Z,15.77
2017-12-15T11:41:36.154Z,13.68
2017-12-15T11:44:03.660Z,15.13
2017-12-15T11:46:31.187Z,15.25
2017-12-15T11:48:58.766Z,18.12
2017-12-15T11:51:26.304Z,21.48
2017-12-15T11:53:53.839Z,16.55
2017-12-15T11:56:21.575Z,14.25
2017-12-15T11:58:49.087Z,15.63
2017-12-15T12:01:16.604Z,15.80
2017-12-15T12:03:44.881Z,13.70
2017-12-15T12:06:13.291Z,14.32
2017-12-15T12:08:40.822Z,16.65
2017-12-15T12:11:09.116Z,13.05
2017-12-15T12:13:36.623Z,14.52
2017-12-15T12:16:04.135Z,12.98
2017-12-15T12:18:31.646Z,14.23
2017-12-15T12:20:59.220Z,11.75
2017-12-15T12:23:26.741Z,11.40
2017-12-15T12:25:54.260Z,11.75
2017-12-15T12:28:22.572Z,11.57
2017-12-15T12:30:50.908Z,10.55
2017-12-15T12:33:18.449Z,11.05
2017-12-15T12:35:46.208Z,9.47
2017-12-15T12:38:14.539Z,8.30
2017-12-15T12:40:42.148Z,10.13
2017-12-15T12:43:09.683Z,8.27
2017-12-15T12:45:37.233Z,8.20
2017-12-15T12:48:04.807Z,7.10
2017-12-15T12:50:32.370Z,6.87
2017-12-15T12:53:00.668Z,7.00
2017-12-15T12:55:28.222Z,5.60
2017-12-15T12:57:55.769Z,7.30
2017-12-15T13:00:23.662Z,7.40
2017-12-15T13:02:51.221Z,6.60
2017-12-15T13:05:18.799Z,7.05
2017-12-15T13:07:46.328Z,9.07
2017-12-15T13:10:13.885Z,7.20
2017-12-15T13:12:41.544Z,7.05
2017-12-15T13:15:09.075Z,7.07
2017-12-15T13:17:36.613Z,7.20
2017-12-15T13:20:04.138Z,5.70
2017-12-15T13:22:31.725Z,8.13
2017-12-15T13:25:00.006Z,8.05
2017-12-15T13:27:28.370Z,8.60
2017-12-15T13:29:56.091Z,8.18
2017-12-15T13:32:23.614Z,7.65
2017-12-15T13:34:51.103Z,8.77
2017-12-15T13:37:18.631Z,8.43
2017-12-15T13:39:46.150Z,7.75
2017-12-15T13:42:13.703Z,7.50
2017-12-15T13:44:41.236Z,8.20
2017-12-15T13:47:08.759Z,8.27
2017-12-15T13:49:37.055Z,10.38
2017-12-15T13:52:04.655Z,12.10
2017-12-15T13:54:32.202Z,11.50
2017-12-15T13:56:59.801Z,12.77
2017-12-15T13:59:28.253Z,13.25
2017-12-15T14:01:55.786Z,12.57
2017-12-15T14:04:23.386Z,16.65
2017-12-15T14:06:52.170Z,14.90
2017-12-15T14:09:19.695Z,18.10
2017-12-15T14:11:47.335Z,20.37
2017-12-15T14:14:15.638Z,19.05
2017-12-15T14:16:43.142Z,20.23
2017-12-15T14:19:10.652Z,18.73
2017-12-15T14:21:38.394Z,17.17
2017-12-15T14:24:05.904Z,19.90
2017-12-15T14:26:33.439Z,19.37
2017-12-15T14:29:01.033Z,22.83
2017-12-15T14:31:28.569Z,23.38
2017-12-15T14:33:56.091Z,24.77
2017-12-15T14:36:23.614Z,24.08
2017-12-15T14:38:51.163Z,25.00
2017-12-15T14:41:18.708Z,24.83
2017-12-15T14:43:48.088Z,24.58
2017-12-15T14:46:15.822Z,23.20
2017-12-15T14:48:43.931Z,27.90
2017-12-15T14:51:10.901Z,29.15
2017-12-15T14:53:38.465Z,27.17
2017-12-15T14:56:06.062Z,27.30
2017-12-15T14:58:33.600Z,30.77
2017-12-15T15:01:01.161Z,29.12
2017-12-15T15:03:28.710Z,33.72
2017-12-15T15:05:57.508Z,28.08
2017-12-15T15:08:25.126Z,29.02
2017-12-15T15:10:52.656Z,28.23
2017-12-15T15:13:20.211Z,29.60
2017-12-15T15:15:47.721Z,31.65
2017-12-15T15:18:15.275Z,27.98
2017-12-15T15:20:42.802Z,29.70
2017-12-15T15:23:11.105Z,31.25
2017-12-15T15:25:38.872Z,28.98
2017-12-15T15:28:06.392Z,28.73
2017-12-15T15:30:33.895Z,27.70
2017-12-15T15:33:01.639Z,29.67
2017-12-15T15:35:29.176Z,28.30
2017-12-15T15:37:57.494Z,29.70
2017-12-15T15:40:24.995Z,28.50
2017-12-15T15:42:52.557Z,28.25
2017-12-15T15:45:20.072Z,34.17
2017-12-15T15:47:47.616Z,30.75
2017-12-15T15:50:15.161Z,29.17
2017-12-15T15:52:43.463Z,28.65
2017-12-15T15:55:14.422Z,31.77
2017-12-15T15:57:42.032Z,29.23
2017-12-15T16:00:10.386Z,29.37
2017-12-15T16:02:37.913Z,29.77
2017-12-15T16:05:05.414Z,31.25
2017-12-15T16:07:32.923Z,29.63
2017-12-15T16:10:00.492Z,34.38
2017-12-15T16:12:28.020Z,33.83
2017-12-15T16:14:56.332Z,29.00
2017-12-15T16:17:23.874Z,29.48
2017-12-15T16:19:51.429Z,28.08
2017-12-15T16:22:18.966Z,26.77
2017-12-15T16:24:47.299Z,31.05
2017-12-15T16:27:14.834Z,31.60
2017-12-15T16:29:43.274Z,33.83
2017-12-15T16:32:10.831Z,30.40
2017-12-15T16:34:38.359Z,31.05
2017-12-15T16:37:06.089Z,34.05
2017-12-15T16:39:33.893Z,31.55
2017-12-15T16:42:01.476Z,31.70
2017-12-15T16:44:28.990Z,30.55
2017-12-15T16:46:56.629Z,35.28
2017-12-15T16:49:24.173Z,32.65
2017-12-15T16:51:52.447Z,32.58
2017-12-15T16:54:20.750Z,35.10
2017-12-15T16:56:48.345Z,29.77
2017-12-15T16:59:15.861Z,32.53
2017-12-15T17:01:44.154Z,35.03
2017-12-15T17:04:11.725Z,30.35
2017-12-15T17:06:39.256Z,31.98
2017-12-15T17:09:07.599Z,32.70
2017-12-15T17:11:35.133Z,37.28
2017-12-15T17:14:03.005Z,33.70
2017-12-15T17:16:30.507Z,35.17
2017-12-15T17:18:58.089Z,33.17
2017-12-15T17:21:25.601Z,32.53
2017-12-15T17:23:53.109Z,31.40
2017-12-15T17:26:20.641Z,34.58
2017-12-15T17:28:48.186Z,33.05
2017-12-15T17:31:15.735Z,32.30
2017-12-15T17:33:43.268Z,29.90
2017-12-15T17:36:10.802Z,30.97
2017-12-15T17:38:39.094Z,31.65
2017-12-15T17:41:06.692Z,31.62
2017-12-15T17:43:34.220Z,34.97
2017-12-15T17:46:01.745Z,35.55
2017-12-15T17:48:29.279Z,34.72
2017-12-15T17:50:56.797Z,28.58
2017-12-15T17:53:24.338Z,35.05
2017-12-15T17:55:51.886Z,31.52
2017-12-15T17:58:19.399Z,32.67
2017-12-15T18:07:32.339Z,35.10
2017-12-15T18:09:59.921Z,33.53
2017-12-15T18:12:27.427Z,32.55
2017-12-15T18:14:55.724Z,37.65
2017-12-15T18:17:24.013Z,37.58
2017-12-15T18:19:51.541Z,32.53
2017-12-15T18:22:19.078Z,36.28
2017-12-15T18:24:46.579Z,36.65
2017-12-15T18:27:14.852Z,37.45
2017-12-15T18:29:43.111Z,36.17
2017-12-15T18:32:11.492Z,40.78
2017-12-15T18:34:39.059Z,34.88
2017-12-15T18:37:07.347Z,37.67
2017-12-15T18:39:35.637Z,36.37
2017-12-15T18:42:03.186Z,34.22
2017-12-15T18:44:30.712Z,37.38
2017-12-15T18:46:58.230Z,36.85
2017-12-15T18:49:25.807Z,33.38
2017-12-15T18:51:53.385Z,32.65
2017-12-15T18:54:20.891Z,33.83
2017-12-15T18:56:48.405Z,30.85
2017-12-15T18:59:15.941Z,36.75
2017-12-15T19:01:43.608Z,34.93
2017-12-15T19:04:11.275Z,35.33
2017-12-15T19:06:38.806Z,35.08
2017-12-15T19:09:06.357Z,32.15
2017-12-15T19:11:33.870Z,32.40
2017-12-15T19:14:02.708Z,38.25
2017-12-15T19:16:30.264Z,43.30
2017-12-15T19:18:57.787Z,33.42
2017-12-15T19:21:26.198Z,35.92
2017-12-15T19:23:53.780Z,35.65
2017-12-15T19:26:21.409Z,33.05
2017-12-15T19:28:49.685Z,33.53
2017-12-15T19:31:17.972Z,34.88
2017-12-15T19:33:45.537Z,32.63
2017-12-15T19:36:13.128Z,33.20
2017-12-15T19:38:40.664Z,33.58
2017-12-15T19:41:08.263Z,33.33
2017-12-15T19:43:35.866Z,33.53
2017-12-15T19:46:04.178Z,34.78
2017-12-15T19:48:31.718Z,33.95
2017-12-15T19:50:59.253Z,32.50
2017-12-15T19:53:26.764Z,29.15
2017-12-15T19:55:54.399Z,29.50
2017-12-15T19:58:21.918Z,31.90
2017-12-15T20:00:49.563Z,40.37
2017-12-15T20:03:17.080Z,32.65
2017-12-15T20:05:46.384Z,38.55
2017-12-15T20:08:13.987Z,32.87
2017-12-15T20:10:41.567Z,33.45
2017-12-15T20:13:09.123Z,35.63
2017-12-15T20:15:36.844Z,34.65
2017-12-15T20:18:04.374Z,31.05
2017-12-15T20:20:32.648Z,30.08
2017-12-15T20:23:01.257Z,30.83
2017-12-15T20:25:28.772Z,27.98
2017-12-15T20:27:56.342Z,28.87
2017-12-15T20:30:23.944Z,30.33
2017-12-15T20:32:51.516Z,31.62
2017-12-15T20:35:19.076Z,25.23
2017-12-15T20:37:46.601Z,27.83
2017-12-15T20:40:14.928Z,26.85
2017-12-15T20:42:42.472Z,25.60
2017-12-15T20:45:11.121Z,28.48
2017-12-15T20:47:39.439Z,28.62
2017-12-15T20:50:06.986Z,29.67
2017-12-15T20:52:34.574Z,30.83
2017-12-15T20:55:02.586Z,31.30
2017-12-15T20:57:30.943Z,28.40
2017-12-15T20:59:58.483Z,28.98
2017-12-15T21:02:26.023Z,29.60
2017-12-15T21:04:53.548Z,30.05
2017-12-15T21:07:21.450Z,31.02
2017-12-15T21:09:49.006Z,29.23
2017-12-15T21:12:16.817Z,32.80
2017-12-15T21:14:44.342Z,32.40
2017-12-15T21:17:12.581Z,31.45
2017-12-15T21:19:40.133Z,30.13
2017-12-15T21:22:07.692Z,31.80
2017-12-15T21:24:36.036Z,28.80
2017-12-15T21:27:03.632Z,30.87
2017-12-15T21:29:31.904Z,33.92
2017-12-15T21:32:00.203Z,26.30
2017-12-15T21:34:28.576Z,26.85
2017-12-15T21:36:56.173Z,29.67
2017-12-15T21:39:23.732Z,29.57
2017-12-15T21:41:51.263Z,25.65
2017-12-15T21:44:18.873Z,26.17
2017-12-15T21:46:46.428Z,26.30
2017-12-15T21:49:13.971Z,27.17
2017-12-15T21:51:41.491Z,29.33
2017-12-15T21:54:09.800Z,26.90
2017-12-15T21:56:37.350Z,26.62
2017-12-15T21:59:05.096Z,27.25
2017-12-15T22:01:33.232Z,25.52
2017-12-15T22:04:00.828Z,24.40
2017-12-15T22:06:29.190Z,31.87
2017-12-15T22:08:56.725Z,25.40
2017-12-15T22:11:24.241Z,24.27
2017-12-15T22:13:51.877Z,26.02
2017-12-15T22:16:20.298Z,27.02
2017-12-15T22:18:47.829Z,27.08
2017-12-15T22:21:16.142Z,26.17
2017-12-15T22:23:43.698Z,25.30
2017-12-15T22:26:11.224Z,24.33
2017-12-15T22:28:39.529Z,25.60
2017-12-15T22:31:07.053Z,27.40
2017-12-15T22:33:34.634Z,26.90
2017-12-15T22:36:02.922Z,21.27
2017-12-15T22:38:30.587Z,25.85
2017-12-15T22:40:58.096Z,23.38
2017-12-15T22:43:25.656Z,24.42
2017-12-15T22:45:53.145Z,26.20
2017-12-15T22:48:21.605Z,24.20
2017-12-15T22:50:49.953Z,22.67
2017-12-15T22:53:17.528Z,22.10
2017-12-15T22:55:45.232Z,24.55
2017-12-15T22:58:12.989Z,27.73
2017-12-15T23:00:41.558Z,24.98
2017-12-15T23:03:09.278Z,25.95
2017-12-15T23:05:37.433Z,23.77
2017-12-15T23:08:05.083Z,23.90
2017-12-15T23:10:33.499Z,26.50
2017-12-15T23:13:01.002Z,24.65
2017-12-15T23:15:28.547Z,22.85
2017-12-15T23:17:56.151Z,21.95
2017-12-15T23:20:23.710Z,22.92
2017-12-15T23:22:51.272Z,25.12
2017-12-15T23:25:18.852Z,23.48
2017-12-15T23:27:46.452Z,22.87
2017-12-15T23:30:14.145Z,23.52
2017-12-15T23:32:42.444Z,21.62
2017-12-15T23:35:09.957Z,24.58
2017-12-15T23:37:37.510Z,27.40
2017-12-15T23:40:05.029Z,24.98
2017-12-15T23:42:32.559Z,22.70
2017-12-15T23:45:00.104Z,21.57
2017-12-15T23:47:28.330Z,23.77
2017-12-15T23:49:55.865Z,24.33
2017-12-15T23:52:23.374Z,21.45
2017-12-15T23:55:02.625Z,21.27
2017-12-15T23:57:30.146Z,22.55
2017-12-15T23:59:57.659Z,23.95
